Time;durP1;ratioP1;P1;durP2;ratioP2;P2;SDS_P1;SDS_P2;PMS_P1;PMS_P2;Temp;Humidity;BMP_temperature;BMP_pressure;BME280_temperature;BME280_humidity;BME280_pressure;Samples;Min_cycle;Max_cycle;Signal;HPM_P1;HPM_P2
2022/05/08 00:02:18;;;;;;;45.13;30.27;;;;;;;;;;767638;180;919282;-65
2022/05/08 00:04:45;;;;;;;50.37;32.37;;;;;;;;;;754573;184;920307;-65
2022/05/08 00:07:10;;;;;;;58.53;32.07;;;;;;;;;;755180;183;920381;-65
2022/05/08 00:09:36;;;;;;;46.17;33.27;;;;;;;;;;760071;184;919836;-65
2022/05/08 00:12:02;;;;;;;47.27;34.20;;;;;;;;;;737081;186;918642;-65
2022/05/08 00:14:27;;;;;;;48.70;34.30;;;;;;;;;;736714;187;920208;-65
2022/05/08 00:16:53;;;;;;;55.93;36.43;;;;;;;;;;744057;186;919168;-65
2022/05/08 00:19:19;;;;;;;51.70;35.77;;;;;;;;;;739887;188;919738;-65
2022/05/08 00:21:45;;;;;;;53.10;35.07;;;;;;;;;;778705;179;918947;-65
2022/05/08 00:24:11;;;;;;;55.27;36.07;;;;;;;;;;783180;179;945082;-65
2022/05/08 00:26:37;;;;;;;57.27;36.80;;;;;;;;;;767961;178;916547;-65
2022/05/08 00:29:03;;;;;;;50.67;34.43;;;;;;;;;;770453;179;916866;-65
2022/05/08 00:31:29;;;;;;;53.30;36.17;;;;;;;;;;777673;179;916260;-65
2022/05/08 00:33:54;;;;;;;54.10;33.57;;;;;;;;;;778499;179;1021657;-65
2022/05/08 00:36:20;;;;;;;47.10;35.20;;;;;;;;;;769018;178;916660;-65
2022/05/08 00:38:46;;;;;;;50.37;34.70;;;;;;;;;;775779;180;916386;-65
2022/05/08 00:41:12;;;;;;;54.57;35.87;;;;;;;;;;781570;179;915753;-65
2022/05/08 00:43:38;;;;;;;50.67;35.57;;;;;;;;;;772645;180;1019687;-64
2022/05/08 00:46:03;;;;;;;54.83;37.97;;;;;;;;;;777763;179;1018679;-65
2022/05/08 00:48:29;;;;;;;57.10;34.90;;;;;;;;;;781028;180;919027;-65
2022/05/08 00:50:55;;;;;;;55.37;36.07;;;;;;;;;;776265;179;918902;-64
2022/05/08 00:53:21;;;;;;;53.33;36.83;;;;;;;;;;775433;179;919836;-65
2022/05/08 00:55:47;;;;;;;47.53;36.43;;;;;;;;;;772662;179;919501;-65
2022/05/08 00:58:13;;;;;;;46.57;34.60;;;;;;;;;;766452;181;919561;-65
2022/05/08 01:00:39;;;;;;;49.97;34.17;;;;;;;;;;771283;179;919567;-65
2022/05/08 01:03:05;;;;;;;51.27;32.47;;;;;;;;;;768271;179;919594;-64
2022/05/08 01:05:31;;;;;;;55.97;36.30;;;;;;;;;;777620;179;919387;-65
2022/05/08 01:07:57;;;;;;;52.35;34.10;;;;;;;;;;777905;179;1123822;-65
2022/05/08 01:10:23;;;;;;;45.83;34.23;;;;;;;;;;777503;180;918867;-65
2022/05/08 01:12:48;;;;;;;47.30;32.73;;;;;;;;;;781478;180;919708;-65
2022/05/08 01:15:15;;;;;;;51.77;36.30;;;;;;;;;;778962;177;920337;-65
2022/05/08 01:17:40;;;;;;;44.78;32.70;;;;;;;;;;766344;182;919163;-65
2022/05/08 01:20:07;;;;;;;53.57;36.60;;;;;;;;;;770212;179;919774;-65
2022/05/08 01:22:32;;;;;;;48.63;35.10;;;;;;;;;;770249;180;919764;-65
2022/05/08 01:24:59;;;;;;;47.08;34.95;;;;;;;;;;767189;181;918269;-65
2022/05/08 01:27:25;;;;;;;47.50;33.90;;;;;;;;;;768880;180;919278;-65
2022/05/08 01:29:51;;;;;;;48.23;35.27;;;;;;;;;;775058;182;918014;-65
2022/05/08 01:32:17;;;;;;;55.23;36.23;;;;;;;;;;778208;179;920400;-65
2022/05/08 01:34:42;;;;;;;48.10;33.83;;;;;;;;;;779796;178;919991;-65
2022/05/08 01:37:08;;;;;;;51.10;36.07;;;;;;;;;;782729;179;919900;-65
2022/05/08 01:39:34;;;;;;;52.97;36.63;;;;;;;;;;778554;179;918974;-66
2022/05/08 01:42:02;;;;;;;49.00;37.13;;;;;;;;;;768731;179;916553;-66
2022/05/08 01:44:26;;;;;;;56.33;37.83;;;;;;;;;;771023;180;1018271;-65
2022/05/08 01:48:21;;;;;;;45.17;32.37;;;;;;;;;;774354;180;919438;-66
2022/05/08 01:49:18;;;;;;;48.57;34.63;;;;;;;;;;774434;180;919149;-65
2022/05/08 01:51:45;;;;;;;51.35;35.22;;;;;;;;;;770056;180;919780;-65
2022/05/08 01:54:10;;;;;;;48.57;31.63;;;;;;;;;;773766;181;919393;-65
2022/05/08 01:56:35;;;;;;;46.20;33.60;;;;;;;;;;775362;180;918882;-65
2022/05/08 01:59:01;;;;;;;52.08;34.10;;;;;;;;;;777382;180;1021844;-65
2022/05/08 02:01:27;;;;;;;53.67;37.77;;;;;;;;;;779856;180;919018;-65
2022/05/08 02:03:53;;;;;;;49.13;37.00;;;;;;;;;;777614;180;919529;-65
2022/05/08 02:06:19;;;;;;;57.93;36.87;;;;;;;;;;776621;180;920232;-65
2022/05/08 02:08:45;;;;;;;54.67;36.43;;;;;;;;;;782681;180;919330;-65
2022/05/08 02:11:10;;;;;;;49.63;35.37;;;;;;;;;;776785;180;919113;-65
2022/05/08 02:13:36;;;;;;;57.87;37.37;;;;;;;;;;779341;180;918791;-65
2022/05/08 02:16:02;;;;;;;59.43;40.20;;;;;;;;;;773985;180;919328;-65
2022/05/08 02:18:28;;;;;;;60.00;38.00;;;;;;;;;;779540;180;927263;-65
2022/05/08 02:20:54;;;;;;;63.37;42.57;;;;;;;;;;775159;179;1020366;-65
2022/05/08 02:23:20;;;;;;;52.60;37.67;;;;;;;;;;776564;177;919605;-66
2022/05/08 02:25:46;;;;;;;55.57;39.90;;;;;;;;;;782905;179;918656;-67
2022/05/08 02:28:11;;;;;;;55.03;38.97;;;;;;;;;;780554;178;919241;-65
2022/05/08 02:30:37;;;;;;;69.57;40.95;;;;;;;;;;779149;179;926179;-65
2022/05/08 02:33:03;;;;;;;62.43;40.13;;;;;;;;;;775461;179;918901;-65
2022/05/08 02:35:29;;;;;;;60.13;40.07;;;;;;;;;;771279;179;919439;-65
2022/05/08 02:37:55;;;;;;;58.63;37.97;;;;;;;;;;778381;179;919714;-65
2022/05/08 02:40:22;;;;;;;49.60;37.23;;;;;;;;;;778487;179;918996;-65
2022/05/08 02:42:47;;;;;;;59.57;39.40;;;;;;;;;;779700;179;919073;-65
2022/05/08 02:45:12;;;;;;;60.43;40.37;;;;;;;;;;779435;179;920057;-65
2022/05/08 02:47:38;;;;;;;55.35;38.95;;;;;;;;;;769265;179;920200;-64
2022/05/08 02:50:05;;;;;;;59.30;39.43;;;;;;;;;;774202;179;919768;-65
2022/05/08 02:52:30;;;;;;;55.80;39.30;;;;;;;;;;770932;179;920017;-65
2022/05/08 02:54:56;;;;;;;52.63;38.67;;;;;;;;;;766529;179;919317;-64
2022/05/08 02:59:54;;;;;;;58.27;38.07;;;;;;;;;;783665;179;918611;-64
2022/05/08 03:02:20;;;;;;;59.23;39.50;;;;;;;;;;776616;179;919684;-65
2022/05/08 03:04:46;;;;;;;53.25;39.88;;;;;;;;;;778125;177;919240;-65
2022/05/08 03:07:11;;;;;;;54.20;36.67;;;;;;;;;;784313;179;918862;-65
2022/05/08 03:09:37;;;;;;;53.43;36.13;;;;;;;;;;776151;180;919570;-65
2022/05/08 03:12:04;;;;;;;49.07;34.67;;;;;;;;;;776854;179;1015383;-65
2022/05/08 03:14:29;;;;;;;49.60;35.60;;;;;;;;;;784213;179;924902;-65
2022/05/08 03:16:55;;;;;;;48.80;35.63;;;;;;;;;;780289;179;919142;-64
2022/05/08 03:19:21;;;;;;;53.40;32.80;;;;;;;;;;777175;180;919572;-65
2022/05/08 03:21:51;;;;;;;54.13;34.78;;;;;;;;;;777048;180;919183;-65
2022/05/08 03:24:14;;;;;;;44.47;33.80;;;;;;;;;;776460;180;918900;-65
2022/05/08 03:26:40;;;;;;;52.53;33.63;;;;;;;;;;768506;180;1052999;-65
2022/05/08 03:29:07;;;;;;;46.07;32.50;;;;;;;;;;775838;179;919655;-65
2022/05/08 03:31:31;;;;;;;46.50;32.63;;;;;;;;;;781355;179;919426;-65
2022/05/08 03:33:57;;;;;;;53.17;33.60;;;;;;;;;;779419;179;919701;-65
2022/05/08 03:36:23;;;;;;;58.20;32.33;;;;;;;;;;774277;179;1021265;-65
2022/05/08 03:38:49;;;;;;;52.17;32.60;;;;;;;;;;773596;180;919555;-65
2022/05/08 03:41:16;;;;;;;51.33;31.40;;;;;;;;;;778701;179;919445;-65
2022/05/08 03:43:42;;;;;;;42.30;32.25;;;;;;;;;;770711;180;918340;-65
2022/05/08 03:46:08;;;;;;;46.55;34.05;;;;;;;;;;775115;179;919705;-65
2022/05/08 03:48:34;;;;;;;44.07;30.87;;;;;;;;;;775892;179;929224;-65
2022/05/08 03:51:00;;;;;;;45.20;31.17;;;;;;;;;;773871;179;919039;-65
2022/05/08 03:53:25;;;;;;;43.33;31.50;;;;;;;;;;773849;179;922657;-64
2022/05/08 03:55:51;;;;;;;46.20;30.77;;;;;;;;;;773854;179;920571;-65
2022/05/08 03:58:17;;;;;;;44.38;30.37;;;;;;;;;;777883;179;919374;-65
2022/05/08 04:00:43;;;;;;;43.97;31.33;;;;;;;;;;777180;179;919606;-65
2022/05/08 04:03:09;;;;;;;42.17;29.40;;;;;;;;;;777192;179;919786;-65
2022/05/08 04:05:35;;;;;;;46.23;31.00;;;;;;;;;;766650;182;952633;-65
2022/05/08 04:08:00;;;;;;;45.57;32.30;;;;;;;;;;767245;182;920308;-65
2022/05/08 04:10:26;;;;;;;50.40;35.07;;;;;;;;;;777742;179;1020625;-65
2022/05/08 04:12:52;;;;;;;49.87;33.03;;;;;;;;;;773579;179;920188;-65
2022/05/08 04:17:50;;;;;;;47.20;31.93;;;;;;;;;;773768;179;920723;-65
2022/05/08 04:20:15;;;;;;;49.50;33.67;;;;;;;;;;781815;179;909415;-65
2022/05/08 04:25:13;;;;;;;48.60;34.80;;;;;;;;;;769231;179;916443;-66
2022/05/08 04:27:39;;;;;;;44.20;33.13;;;;;;;;;;777566;180;916601;-64
2022/05/08 04:30:05;;;;;;;41.13;32.07;;;;;;;;;;771896;180;1121061;-65
2022/05/08 04:32:31;;;;;;;45.27;34.23;;;;;;;;;;769949;180;915985;-65
2022/05/08 04:34:57;;;;;;;53.53;36.33;;;;;;;;;;775330;179;916703;-65
2022/05/08 04:37:23;;;;;;;47.22;31.90;;;;;;;;;;779552;179;916163;-65
2022/05/08 04:39:49;;;;;;;49.60;34.00;;;;;;;;;;778848;179;935929;-65
2022/05/08 04:42:15;;;;;;;46.70;33.87;;;;;;;;;;777995;179;914259;-65
2022/05/08 04:44:40;;;;;;;48.40;33.17;;;;;;;;;;782560;179;916934;-65
2022/05/08 04:47:06;;;;;;;43.30;32.43;;;;;;;;;;771504;180;1015785;-66
2022/05/08 04:49:32;;;;;;;50.50;33.47;;;;;;;;;;769317;177;913416;-65
2022/05/08 04:51:58;;;;;;;47.00;33.07;;;;;;;;;;776352;178;913015;-64
2022/05/08 04:54:24;;;;;;;46.27;32.60;;;;;;;;;;781706;180;919337;-65
2022/05/08 04:56:51;;;;;;;48.80;33.40;;;;;;;;;;772873;180;919797;-65
2022/05/08 04:59:16;;;;;;;46.47;32.50;;;;;;;;;;771824;179;919331;-65
2022/05/08 05:01:41;;;;;;;48.53;34.47;;;;;;;;;;782985;177;919183;-65
2022/05/08 05:04:07;;;;;;;49.33;32.80;;;;;;;;;;777134;178;919155;-65
2022/05/08 05:06:33;;;;;;;45.57;34.17;;;;;;;;;;778504;179;930618;-65
2022/05/08 05:08:59;;;;;;;49.73;33.47;;;;;;;;;;782815;179;919931;-66
2022/05/08 05:11:25;;;;;;;42.30;30.70;;;;;;;;;;776367;180;921415;-66
2022/05/08 05:13:51;;;;;;;53.00;34.60;;;;;;;;;;775423;179;1021242;-65
2022/05/08 05:16:17;;;;;;;54.22;36.63;;;;;;;;;;773241;180;919649;-64
2022/05/08 05:18:42;;;;;;;46.90;34.40;;;;;;;;;;777133;179;920289;-65
2022/05/08 05:21:08;;;;;;;48.93;33.40;;;;;;;;;;768151;179;1226987;-65
2022/05/08 05:23:34;;;;;;;50.67;39.50;;;;;;;;;;775507;179;916419;-67
2022/05/08 05:26:00;;;;;;;50.60;36.63;;;;;;;;;;780597;179;918644;-66
2022/05/08 05:28:26;;;;;;;46.77;33.87;;;;;;;;;;771258;180;915534;-65
2022/05/08 05:30:52;;;;;;;54.97;34.07;;;;;;;;;;774192;179;916259;-65
2022/05/08 05:33:19;;;;;;;47.27;32.00;;;;;;;;;;780403;179;918770;-65
2022/05/08 05:35:45;;;;;;;50.57;34.23;;;;;;;;;;775012;179;917743;-65
2022/05/08 05:38:11;;;;;;;49.77;33.60;;;;;;;;;;773977;180;918856;-65
2022/05/08 05:40:37;;;;;;;51.85;32.97;;;;;;;;;;775604;179;919423;-65
2022/05/08 05:43:03;;;;;;;49.73;36.53;;;;;;;;;;773434;177;921571;-66
2022/05/08 05:45:29;;;;;;;54.33;34.67;;;;;;;;;;773716;179;925237;-65
2022/05/08 05:47:55;;;;;;;53.57;37.50;;;;;;;;;;774909;179;920248;-65
2022/05/08 05:50:20;;;;;;;55.63;37.30;;;;;;;;;;779594;179;919708;-65
2022/05/08 05:52:46;;;;;;;56.33;36.33;;;;;;;;;;774652;177;916556;-65
2022/05/08 05:55:12;;;;;;;48.43;34.87;;;;;;;;;;776010;177;916509;-65
2022/05/08 05:57:39;;;;;;;52.87;35.10;;;;;;;;;;781818;179;912745;-65
2022/05/08 06:00:05;;;;;;;47.70;36.17;;;;;;;;;;774975;179;920483;-65
2022/05/08 06:02:31;;;;;;;58.50;36.60;;;;;;;;;;776059;177;914778;-65
2022/05/08 06:04:58;;;;;;;50.05;33.45;;;;;;;;;;780545;177;920625;-64
2022/05/08 06:07:23;;;;;;;48.33;34.93;;;;;;;;;;776980;179;916727;-66
2022/05/08 06:09:49;;;;;;;50.80;35.93;;;;;;;;;;774737;177;914829;-66
2022/05/08 06:12:16;;;;;;;56.70;37.93;;;;;;;;;;774996;178;921922;-65
2022/05/08 06:14:41;;;;;;;54.20;38.60;;;;;;;;;;780244;179;921003;-66
2022/05/08 06:17:07;;;;;;;59.53;34.83;;;;;;;;;;774028;177;913540;-65
2022/05/08 06:19:33;;;;;;;58.75;45.75;;;;;;;;;;775007;179;918362;-65
2022/05/08 06:21:59;;;;;;;52.50;37.70;;;;;;;;;;780524;179;911723;-64
2022/05/08 06:24:24;;;;;;;49.28;35.92;;;;;;;;;;777279;180;911085;-65
2022/05/08 06:26:50;;;;;;;56.10;34.70;;;;;;;;;;775314;179;913612;-65
2022/05/08 06:29:16;;;;;;;56.40;40.07;;;;;;;;;;779615;180;915948;-65
2022/05/08 06:31:42;;;;;;;52.90;35.60;;;;;;;;;;773266;177;918784;-65
2022/05/08 06:34:08;;;;;;;52.57;36.80;;;;;;;;;;772967;180;922564;-66
2022/05/08 06:36:34;;;;;;;55.40;34.20;;;;;;;;;;772536;180;919586;-66
2022/05/08 06:38:59;;;;;;;50.50;31.80;;;;;;;;;;783254;179;912953;-66
2022/05/08 06:41:25;;;;;;;48.75;34.72;;;;;;;;;;778948;179;942487;-66
2022/05/08 06:43:53;;;;;;;46.17;31.30;;;;;;;;;;773049;179;921464;-66
2022/05/08 06:46:17;;;;;;;48.20;31.80;;;;;;;;;;779779;178;919766;-66
2022/05/08 06:48:43;;;;;;;44.43;33.00;;;;;;;;;;776445;179;918756;-66
2022/05/08 06:51:09;;;;;;;46.93;33.20;;;;;;;;;;775595;179;919356;-66
2022/05/08 06:53:35;;;;;;;49.27;34.93;;;;;;;;;;778322;179;919227;-66
2022/05/08 06:56:00;;;;;;;47.20;31.87;;;;;;;;;;775380;179;918956;-66
2022/05/08 06:58:26;;;;;;;41.88;32.85;;;;;;;;;;773824;179;919589;-65
2022/05/08 07:03:24;;;;;;;43.97;31.63;;;;;;;;;;768676;181;918962;-66
2022/05/08 07:05:49;;;;;;;60.10;38.87;;;;;;;;;;759180;183;918838;-67
2022/05/08 07:08:15;;;;;;;44.90;33.80;;;;;;;;;;772391;179;919281;-67
2022/05/08 07:10:41;;;;;;;42.53;32.20;;;;;;;;;;780557;180;919496;-66
2022/05/08 07:13:07;;;;;;;44.37;34.00;;;;;;;;;;776561;179;919990;-66
2022/05/08 07:15:33;;;;;;;48.97;33.03;;;;;;;;;;776446;178;918906;-66
2022/05/08 07:17:59;;;;;;;47.70;32.87;;;;;;;;;;779869;179;919573;-66
2022/05/08 07:20:25;;;;;;;49.90;37.30;;;;;;;;;;779128;180;628229;-66
2022/05/08 07:22:51;;;;;;;44.50;33.00;;;;;;;;;;776341;178;757326;-66
2022/05/08 07:25:16;;;;;;;42.03;31.90;;;;;;;;;;779741;177;625382;-66
2022/05/08 07:27:42;;;;;;;37.73;28.00;;;;;;;;;;779281;179;639576;-67
2022/05/08 07:30:08;;;;;;;40.13;27.03;;;;;;;;;;779730;179;622962;-66
2022/05/08 07:32:34;;;;;;;40.27;30.10;;;;;;;;;;780320;180;638655;-66
2022/05/08 07:37:32;;;;;;;38.40;27.87;;;;;;;;;;776781;178;622507;-66
2022/05/08 07:39:57;;;;;;;42.80;27.30;;;;;;;;;;784743;177;678229;-66
2022/05/08 07:42:23;;;;;;;43.63;26.90;;;;;;;;;;783321;177;619702;-68
2022/05/08 07:44:49;;;;;;;34.23;25.93;;;;;;;;;;787210;179;620041;-66
2022/05/08 07:47:15;;;;;;;31.87;24.20;;;;;;;;;;775338;179;628778;-66
2022/05/08 07:49:41;;;;;;;33.60;24.17;;;;;;;;;;777060;178;629599;-66
2022/05/08 07:52:07;;;;;;;26.03;21.83;;;;;;;;;;784498;177;631496;-67
2022/05/08 07:54:32;;;;;;;31.00;23.73;;;;;;;;;;781510;180;632936;-66
2022/05/08 07:56:58;;;;;;;34.53;21.70;;;;;;;;;;779123;179;713006;-66
2022/05/08 07:59:24;;;;;;;28.50;20.50;;;;;;;;;;784695;179;645075;-66
2022/05/08 08:01:50;;;;;;;27.10;20.80;;;;;;;;;;780879;179;621298;-66
2022/05/08 08:04:16;;;;;;;25.00;18.93;;;;;;;;;;772878;180;630103;-67
2022/05/08 08:06:42;;;;;;;28.43;22.57;;;;;;;;;;773967;179;635878;-66
2022/05/08 08:09:10;;;;;;;31.33;23.67;;;;;;;;;;784973;180;625773;-67
2022/05/08 08:11:34;;;;;;;29.53;21.60;;;;;;;;;;776897;180;623305;-66
2022/05/08 08:13:59;;;;;;;29.20;21.97;;;;;;;;;;777334;179;890686;-66
2022/05/08 08:16:25;;;;;;;28.17;19.87;;;;;;;;;;782015;179;627302;-67
2022/05/08 08:18:54;;;;;;;25.80;21.30;;;;;;;;;;778376;177;630060;-65
2022/05/08 08:21:17;;;;;;;29.20;21.73;;;;;;;;;;779585;179;632116;-67
2022/05/08 08:23:43;;;;;;;31.07;20.37;;;;;;;;;;784195;179;626037;-67
2022/05/08 08:26:08;;;;;;;27.47;21.03;;;;;;;;;;782917;177;630261;-67
2022/05/08 08:28:34;;;;;;;22.23;18.40;;;;;;;;;;784860;178;639209;-67
2022/05/08 08:31:00;;;;;;;24.83;20.60;;;;;;;;;;783257;179;638021;-67
2022/05/08 08:33:26;;;;;;;28.80;18.50;;;;;;;;;;783970;179;619461;-66
2022/05/08 08:35:52;;;;;;;25.70;17.20;;;;;;;;;;784114;178;627650;-67
2022/05/08 08:38:18;;;;;;;19.63;16.93;;;;;;;;;;780892;179;624766;-67
2022/05/08 08:40:44;;;;;;;25.87;19.37;;;;;;;;;;780221;180;616747;-68
2022/05/08 08:43:11;;;;;;;22.70;16.90;;;;;;;;;;782494;179;626773;-67
2022/05/08 08:48:09;;;;;;;22.70;17.60;;;;;;;;;;777886;180;630386;-67
2022/05/08 08:50:34;;;;;;;17.30;14.20;;;;;;;;;;770496;180;631910;-67
2022/05/08 08:53:00;;;;;;;21.80;15.70;;;;;;;;;;776884;180;635366;-67
2022/05/08 08:55:26;;;;;;;23.90;14.97;;;;;;;;;;776944;179;630541;-67
2022/05/08 08:57:52;;;;;;;18.10;14.97;;;;;;;;;;775649;179;626986;-68
2022/05/08 09:00:18;;;;;;;19.27;14.23;;;;;;;;;;778317;176;621377;-66
2022/05/08 09:02:44;;;;;;;18.03;15.13;;;;;;;;;;781112;179;630473;-67
2022/05/08 09:05:10;;;;;;;17.33;13.20;;;;;;;;;;781319;179;643675;-68
2022/05/08 09:07:38;;;;;;;16.80;13.40;;;;;;;;;;779192;179;684248;-68
2022/05/08 09:10:09;;;;;;;21.90;12.33;;;;;;;;;;779954;177;634258;-68
2022/05/08 09:12:35;;;;;;;15.80;13.43;;;;;;;;;;776605;180;631293;-67
2022/05/08 09:15:00;;;;;;;14.60;11.97;;;;;;;;;;780312;179;774921;-67
2022/05/08 09:17:26;;;;;;;15.40;12.07;;;;;;;;;;776136;179;629887;-68
2022/05/08 09:19:52;;;;;;;12.73;10.23;;;;;;;;;;776045;178;636932;-67
2022/05/08 09:22:18;;;;;;;15.97;12.27;;;;;;;;;;781271;177;618954;-67
2022/05/08 09:24:53;;;;;;;17.13;13.67;;;;;;;;;;778614;179;636654;-67
2022/05/08 09:27:18;;;;;;;15.30;12.70;;;;;;;;;;779873;179;626934;-68
2022/05/08 09:29:44;;;;;;;19.10;15.07;;;;;;;;;;778833;179;628508;-67
2022/05/08 09:32:10;;;;;;;19.80;14.30;;;;;;;;;;780073;179;920172;-66
2022/05/08 09:34:41;;;;;;;18.87;12.90;;;;;;;;;;776928;179;919491;-67
2022/05/08 09:37:07;;;;;;;16.50;12.50;;;;;;;;;;779495;179;617487;-68
2022/05/08 09:39:33;;;;;;;17.43;14.33;;;;;;;;;;780127;178;630192;-67
2022/05/08 09:41:59;;;;;;;12.97;11.47;;;;;;;;;;785298;179;634462;-66
2022/05/08 09:44:25;;;;;;;14.50;11.83;;;;;;;;;;781964;179;619883;-68
2022/05/08 09:46:51;;;;;;;13.73;12.30;;;;;;;;;;779876;179;629177;-69
2022/05/08 09:49:17;;;;;;;18.53;12.77;;;;;;;;;;785217;179;642335;-68
2022/05/08 09:51:43;;;;;;;14.80;10.43;;;;;;;;;;781106;179;629175;-69
2022/05/08 09:54:09;;;;;;;13.47;11.57;;;;;;;;;;782498;179;630262;-69
2022/05/08 09:56:35;;;;;;;12.37;10.10;;;;;;;;;;786810;180;619231;-70
2022/05/08 09:59:00;;;;;;;13.40;11.10;;;;;;;;;;785119;179;621993;-68
2022/05/08 10:01:26;;;;;;;13.30;10.90;;;;;;;;;;784064;179;624782;-69
2022/05/08 10:03:53;;;;;;;18.33;11.33;;;;;;;;;;780891;179;630157;-68
2022/05/08 10:06:18;;;;;;;13.27;10.80;;;;;;;;;;784124;180;629973;-68
2022/05/08 10:08:45;;;;;;;15.33;11.13;;;;;;;;;;775491;177;629374;-68
2022/05/08 10:16:13;;;;;;;11.43;10.20;;;;;;;;;;783028;179;643696;-70
2022/05/08 10:18:39;;;;;;;12.30;9.83;;;;;;;;;;772531;179;628404;-68
2022/05/08 10:21:07;;;;;;;12.27;9.10;;;;;;;;;;782389;179;617193;-68
2022/05/08 10:23:33;;;;;;;11.80;8.70;;;;;;;;;;785236;179;918322;-69
2022/05/08 10:26:05;;;;;;;14.80;9.90;;;;;;;;;;784802;178;632091;-68
2022/05/08 10:28:30;;;;;;;10.73;8.43;;;;;;;;;;782263;179;633578;-70
2022/05/08 10:30:56;;;;;;;11.57;9.30;;;;;;;;;;777132;180;629904;-68
2022/05/08 10:33:22;;;;;;;14.73;11.17;;;;;;;;;;780114;180;623875;-70
2022/05/08 10:35:49;;;;;;;17.30;10.70;;;;;;;;;;778838;179;625909;-70
2022/05/08 10:38:19;;;;;;;12.73;9.40;;;;;;;;;;777249;179;628547;-70
2022/05/08 10:40:46;;;;;;;11.60;8.57;;;;;;;;;;784900;179;630773;-69
2022/05/08 10:43:19;;;;;;;9.20;7.57;;;;;;;;;;775982;180;635928;-67
2022/05/08 10:45:44;;;;;;;10.63;8.60;;;;;;;;;;779864;179;626006;-68
2022/05/08 10:48:10;;;;;;;12.27;7.57;;;;;;;;;;780341;180;613083;-68
2022/05/08 10:50:35;;;;;;;10.10;8.93;;;;;;;;;;783862;176;617696;-68
2022/05/08 10:53:01;;;;;;;13.27;8.80;;;;;;;;;;784941;179;627870;-68
2022/05/08 10:55:27;;;;;;;9.00;7.77;;;;;;;;;;782926;178;634032;-68
2022/05/08 10:57:53;;;;;;;11.35;8.90;;;;;;;;;;778601;179;621001;-68
2022/05/08 11:00:20;;;;;;;9.70;8.17;;;;;;;;;;768991;183;633589;-68
2022/05/08 11:02:47;;;;;;;10.07;8.97;;;;;;;;;;771049;180;637216;-70
2022/05/08 11:05:13;;;;;;;10.60;8.47;;;;;;;;;;774064;180;695010;-68
2022/05/08 11:07:39;;;;;;;8.40;7.47;;;;;;;;;;785645;179;619240;-69
2022/05/08 11:10:05;;;;;;;9.00;8.10;;;;;;;;;;782288;179;632140;-70
2022/05/08 11:12:30;;;;;;;16.33;9.27;;;;;;;;;;781315;180;635170;-70
2022/05/08 11:15:02;;;;;;;9.87;7.20;;;;;;;;;;783234;180;615104;-69
2022/05/08 11:17:28;;;;;;;12.30;9.20;;;;;;;;;;786018;179;617048;-70
2022/05/08 11:19:57;;;;;;;10.37;7.60;;;;;;;;;;781712;179;624395;-69
2022/05/08 11:22:20;;;;;;;9.90;8.20;;;;;;;;;;780410;178;623624;-70
2022/05/08 11:24:46;;;;;;;9.13;7.70;;;;;;;;;;780861;180;620475;-69
2022/05/08 11:27:12;;;;;;;8.77;6.47;;;;;;;;;;776154;179;636591;-71
2022/05/08 11:29:37;;;;;;;11.93;8.20;;;;;;;;;;780388;179;635443;-69
2022/05/08 11:37:09;;;;;;;8.80;7.70;;;;;;;;;;781895;179;624595;-67
2022/05/08 11:39:35;;;;;;;9.27;6.63;;;;;;;;;;777426;180;629377;-68
2022/05/08 11:42:01;;;;;;;9.60;7.00;;;;;;;;;;781888;178;632508;-68
2022/05/08 11:44:28;;;;;;;8.33;7.43;;;;;;;;;;779605;178;638890;-70
2022/05/08 11:46:55;;;;;;;8.40;7.60;;;;;;;;;;783919;177;629340;-69
2022/05/08 11:49:19;;;;;;;11.93;7.40;;;;;;;;;;774244;179;629065;-69
2022/05/08 11:51:45;;;;;;;7.60;6.87;;;;;;;;;;775438;179;626268;-68
2022/05/08 11:54:17;;;;;;;9.10;7.80;;;;;;;;;;774752;180;630171;-69
2022/05/08 11:56:43;;;;;;;10.60;7.77;;;;;;;;;;782479;179;620236;-69
2022/05/08 11:59:08;;;;;;;11.93;8.03;;;;;;;;;;783830;179;630923;-68
2022/05/08 12:01:35;;;;;;;9.00;7.47;;;;;;;;;;782973;177;629309;-69
2022/05/08 12:04:06;;;;;;;10.03;7.90;;;;;;;;;;783087;178;627032;-70
2022/05/08 12:06:32;;;;;;;9.50;6.90;;;;;;;;;;780210;178;684368;-68
2022/05/08 12:08:57;;;;;;;8.70;7.40;;;;;;;;;;785198;176;627315;-69
2022/05/08 12:11:26;;;;;;;8.70;7.77;;;;;;;;;;770922;180;629121;-70
2022/05/08 12:13:57;;;;;;;11.63;8.73;;;;;;;;;;779510;179;618053;-68
2022/05/08 12:16:23;;;;;;;13.60;8.40;;;;;;;;;;780291;179;622097;-68
2022/05/08 12:18:54;;;;;;;14.03;9.87;;;;;;;;;;786536;179;633508;-70
2022/05/08 12:21:26;;;;;;;14.60;8.80;;;;;;;;;;778010;180;706001;-69
2022/05/08 12:23:52;;;;;;;10.43;8.17;;;;;;;;;;781112;179;632451;-70
2022/05/08 12:26:18;;;;;;;8.87;7.97;;;;;;;;;;779405;180;628572;-69
2022/05/08 12:28:44;;;;;;;15.10;8.77;;;;;;;;;;788160;179;617499;-69
2022/05/08 12:31:09;;;;;;;10.83;8.20;;;;;;;;;;782065;178;611074;-71
2022/05/08 12:33:35;;;;;;;8.83;7.33;;;;;;;;;;782127;179;620263;-69
2022/05/08 12:36:01;;;;;;;13.90;7.50;;;;;;;;;;780581;180;630034;-70
2022/05/08 12:38:27;;;;;;;10.60;7.77;;;;;;;;;;779863;178;630091;-71
2022/05/08 12:40:53;;;;;;;13.40;8.37;;;;;;;;;;777769;179;630109;-70
2022/05/08 12:43:19;;;;;;;8.40;7.60;;;;;;;;;;779264;179;617262;-68
2022/05/08 12:45:46;;;;;;;10.60;8.27;;;;;;;;;;778159;178;623669;-68
2022/05/08 12:48:11;;;;;;;10.77;9.27;;;;;;;;;;778296;180;647192;-69
2022/05/08 12:50:37;;;;;;;16.30;8.70;;;;;;;;;;777888;180;617480;-68
2022/05/08 12:53:03;;;;;;;11.13;8.80;;;;;;;;;;786928;179;628115;-69
2022/05/08 12:55:28;;;;;;;15.07;9.00;;;;;;;;;;783334;179;624055;-70
2022/05/08 13:00:26;;;;;;;12.30;10.33;;;;;;;;;;779441;179;627566;-72
2022/05/08 13:02:52;;;;;;;15.43;10.40;;;;;;;;;;776813;179;635480;-68
2022/05/08 13:05:18;;;;;;;21.00;14.57;;;;;;;;;;775024;179;632860;-70
2022/05/08 13:07:44;;;;;;;14.33;11.33;;;;;;;;;;779915;179;628884;-70
2022/05/08 13:10:09;;;;;;;13.60;10.07;;;;;;;;;;782601;179;619406;-71
2022/05/08 13:12:35;;;;;;;12.07;9.70;;;;;;;;;;778546;179;625539;-68
2022/05/08 13:15:01;;;;;;;17.27;12.40;;;;;;;;;;781079;179;625595;-69
2022/05/08 13:17:27;;;;;;;11.47;8.87;;;;;;;;;;786303;179;623940;-69
2022/05/08 13:19:53;;;;;;;14.20;11.00;;;;;;;;;;780075;177;619967;-71
2022/05/08 13:22:19;;;;;;;10.10;7.63;;;;;;;;;;778018;179;654072;-71
2022/05/08 13:24:45;;;;;;;10.63;8.20;;;;;;;;;;785804;179;625156;-70
2022/05/08 13:27:11;;;;;;;8.47;7.57;;;;;;;;;;780353;179;653746;-70
2022/05/08 13:29:37;;;;;;;10.73;8.93;;;;;;;;;;778567;178;626558;-69
2022/05/08 13:32:03;;;;;;;9.73;8.73;;;;;;;;;;778982;180;618234;-68
2022/05/08 13:34:30;;;;;;;13.20;7.47;;;;;;;;;;783426;179;620881;-69
2022/05/08 13:36:54;;;;;;;10.17;8.63;;;;;;;;;;779336;178;620194;-72
2022/05/08 13:39:20;;;;;;;9.77;8.10;;;;;;;;;;780244;180;622368;-71
2022/05/08 13:41:47;;;;;;;9.23;8.17;;;;;;;;;;783844;179;630359;-69
2022/05/08 13:44:12;;;;;;;9.80;8.10;;;;;;;;;;780388;179;621069;-70
2022/05/08 13:46:38;;;;;;;10.17;8.10;;;;;;;;;;781655;179;631052;-70
2022/05/08 13:49:04;;;;;;;10.90;8.10;;;;;;;;;;779768;178;624563;-71
2022/05/08 13:51:29;;;;;;;17.13;8.93;;;;;;;;;;779345;177;632795;-70
2022/05/08 13:53:55;;;;;;;9.87;7.60;;;;;;;;;;778465;179;631624;-69
2022/05/08 13:56:21;;;;;;;11.00;9.17;;;;;;;;;;777639;179;656950;-69
2022/05/08 13:58:47;;;;;;;16.17;8.27;;;;;;;;;;764167;179;624435;-69
2022/05/08 14:01:14;;;;;;;10.30;8.43;;;;;;;;;;775831;179;915795;-69
2022/05/08 14:03:39;;;;;;;10.55;9.10;;;;;;;;;;777336;179;919144;-69
2022/05/08 14:06:04;;;;;;;12.53;9.93;;;;;;;;;;783395;179;625035;-70
2022/05/08 14:08:30;;;;;;;12.57;9.37;;;;;;;;;;780060;179;624278;-70
2022/05/08 14:10:56;;;;;;;17.00;10.40;;;;;;;;;;780629;178;614561;-71
2022/05/08 14:13:22;;;;;;;13.03;9.20;;;;;;;;;;781822;179;621235;-73
2022/05/08 14:15:48;;;;;;;12.20;8.97;;;;;;;;;;778766;180;641900;-70
2022/05/08 14:18:14;;;;;;;10.53;8.80;;;;;;;;;;777317;179;626697;-69
2022/05/08 14:20:40;;;;;;;14.68;9.90;;;;;;;;;;781468;179;619379;-71
2022/05/08 14:23:06;;;;;;;14.70;8.57;;;;;;;;;;768763;181;621512;-69
2022/05/08 14:25:32;;;;;;;11.70;8.37;;;;;;;;;;782373;178;618388;-69
2022/05/08 14:27:58;;;;;;;11.30;8.70;;;;;;;;;;780158;176;644315;-72
2022/05/08 14:30:23;;;;;;;8.20;7.40;;;;;;;;;;788223;179;625253;-69